Time;durP1;ratioP1;P1;durP2;ratioP2;P2;SDS_P1;SDS_P2;PMS_P1;PMS_P2;Temp;Humidity;BMP_temperature;BMP_pressure;BME280_temperature;BME280_humidity;BME280_pressure;Samples;Min_cycle;Max_cycle;Signal;HPM_P1;HPM_P2
2023/12/10 00:01:56;;;;;;;20.30;5.63;;;10.10;99.90;;;;;;5095129;27;20471;-71
2023/12/10 00:04:23;;;;;;;19.63;6.93;;;10.10;99.90;;;;;;5099608;28;20494;-71
2023/12/10 00:06:50;;;;;;;16.58;4.53;;;10.10;99.90;;;;;;5105800;28;20420;-71
2023/12/10 00:09:17;;;;;;;15.35;4.72;;;10.00;99.90;;;;;;5098745;28;20410;-71
2023/12/10 00:11:44;;;;;;;15.57;4.80;;;10.10;99.90;;;;;;5109425;28;20414;-71
2023/12/10 00:14:11;;;;;;;16.35;5.10;;;10.10;99.90;;;;;;5105486;28;20451;-71
2023/12/10 00:16:39;;;;;;;16.95;5.20;;;10.10;99.90;;;;;;5106211;28;20873;-70
2023/12/10 00:19:06;;;;;;;17.60;5.80;;;10.10;99.90;;;;;;5104367;28;20426;-71
2023/12/10 00:21:33;;;;;;;15.18;5.22;;;10.10;99.90;;;;;;5095276;28;20503;-71
2023/12/10 00:24:00;;;;;;;13.68;4.60;;;10.10;99.90;;;;;;5101599;27;20402;-72
2023/12/10 00:26:26;;;;;;;18.30;5.40;;;10.10;99.90;;;;;;5106041;28;20552;-71
2023/12/10 00:28:53;;;;;;;18.20;5.37;;;10.10;99.90;;;;;;5100787;28;20529;-72
2023/12/10 00:31:20;;;;;;;17.13;5.00;;;10.10;99.90;;;;;;5109663;28;20899;-71
2023/12/10 00:33:47;;;;;;;20.88;5.32;;;10.10;99.90;;;;;;5105076;28;20410;-71
2023/12/10 00:36:15;;;;;;;12.63;4.80;;;10.10;99.90;;;;;;5099105;28;20448;-71
2023/12/10 00:38:42;;;;;;;15.45;4.90;;;10.10;99.90;;;;;;5107165;28;20425;-71
2023/12/10 00:41:10;;;;;;;19.43;5.33;;;10.20;99.90;;;;;;5107957;28;20420;-72
2023/12/10 00:43:37;;;;;;;13.45;4.72;;;10.20;99.90;;;;;;5093768;28;20426;-71
2023/12/10 00:46:05;;;;;;;18.23;5.10;;;10.20;99.90;;;;;;5108887;28;20415;-71
2023/12/10 00:48:32;;;;;;;18.03;5.47;;;10.20;99.90;;;;;;5106014;28;20904;-72
2023/12/10 00:51:00;;;;;;;13.85;5.25;;;10.20;99.90;;;;;;5106902;28;20549;-72
2023/12/10 00:53:27;;;;;;;16.17;5.50;;;10.30;99.90;;;;;;5104546;28;20408;-71
2023/12/10 00:55:53;;;;;;;13.13;5.15;;;10.30;99.90;;;;;;5102835;28;20957;-72
2023/12/10 00:58:20;;;;;;;17.03;4.97;;;10.30;99.90;;;;;;5093189;28;20522;-71
2023/12/10 01:00:47;;;;;;;17.20;5.18;;;10.30;99.90;;;;;;5108837;28;20430;-71
2023/12/10 01:03:14;;;;;;;17.05;4.50;;;10.30;99.90;;;;;;5101914;28;20777;-73
2023/12/10 01:05:41;;;;;;;17.08;4.47;;;10.30;99.90;;;;;;5095359;28;20410;-71
2023/12/10 01:08:09;;;;;;;14.90;4.72;;;10.30;99.90;;;;;;5101517;28;20430;-71
2023/12/10 01:10:36;;;;;;;16.08;4.90;;;10.20;99.90;;;;;;5096772;27;20420;-71
2023/12/10 01:13:03;;;;;;;13.00;4.88;;;10.20;99.90;;;;;;5099060;28;20436;-71
2023/12/10 01:15:32;;;;;;;14.57;5.00;;;10.20;99.90;;;;;;5107286;28;20411;-70
2023/12/10 01:18:00;;;;;;;14.15;5.40;;;10.20;99.90;;;;;;5094044;28;20842;-71
2023/12/10 01:20:29;;;;;;;20.33;5.30;;;10.20;99.90;;;;;;5097842;28;20424;-71
2023/12/10 01:22:56;;;;;;;16.48;5.50;;;10.20;99.90;;;;;;5100235;28;20915;-71
2023/12/10 01:25:25;;;;;;;18.60;5.10;;;10.20;99.90;;;;;;5105996;28;20409;-71
2023/12/10 01:27:52;;;;;;;17.58;5.10;;;10.20;99.90;;;;;;5100248;28;20424;-71
2023/12/10 01:30:23;;;;;;;14.65;6.00;;;10.20;99.90;;;;;;5108879;28;20457;-71
2023/12/10 01:32:50;;;;;;;19.73;4.90;;;10.20;99.90;;;;;;5103765;28;20408;-71
2023/12/10 01:35:17;;;;;;;16.57;5.47;;;10.20;99.90;;;;;;5108401;28;20909;-72
2023/12/10 01:37:44;;;;;;;14.00;4.47;;;10.20;99.90;;;;;;5096347;28;20418;-71
2023/12/10 01:40:12;;;;;;;13.90;4.35;;;10.20;99.90;;;;;;5109018;28;20425;-71
2023/12/10 01:42:41;;;;;;;14.93;5.38;;;10.20;99.90;;;;;;5100685;28;20495;-72
2023/12/10 01:45:08;;;;;;;15.60;3.75;;;10.20;99.90;;;;;;5102695;28;20475;-72
2023/12/10 01:47:39;;;;;;;15.23;4.50;;;10.20;99.90;;;;;;5107916;28;20415;-71
2023/12/10 01:50:07;;;;;;;14.93;4.70;;;10.30;99.90;;;;;;5109633;28;20747;-71
2023/12/10 01:52:35;;;;;;;15.40;3.90;;;10.30;99.90;;;;;;5105315;28;20410;-71
2023/12/10 01:55:04;;;;;;;17.15;4.85;;;10.30;99.90;;;;;;5106875;28;20803;-71
2023/12/10 01:57:31;;;;;;;11.80;4.28;;;10.30;99.90;;;;;;5100004;28;20970;-72
2023/12/10 02:00:00;;;;;;;17.63;4.97;;;10.20;99.90;;;;;;5094935;28;20424;-71
2023/12/10 02:02:28;;;;;;;16.52;4.30;;;10.20;99.90;;;;;;5099232;28;20430;-72
2023/12/10 02:04:56;;;;;;;15.30;4.30;;;10.30;99.90;;;;;;5101850;28;20432;-71
2023/12/10 02:07:23;;;;;;;11.60;3.90;;;10.30;99.90;;;;;;5107580;28;20408;-71
2023/12/10 02:09:51;;;;;;;11.63;4.00;;;10.30;99.90;;;;;;5099957;28;20412;-71
2023/12/10 02:12:19;;;;;;;10.05;4.00;;;10.20;99.90;;;;;;5096758;28;20449;-71
2023/12/10 02:14:45;;;;;;;10.70;3.78;;;10.30;99.90;;;;;;5107700;28;20423;-72
2023/12/10 02:17:14;;;;;;;14.90;4.45;;;10.20;99.90;;;;;;5099426;28;20415;-71
2023/12/10 02:19:40;;;;;;;9.68;3.72;;;10.20;99.90;;;;;;5100179;28;20791;-71
2023/12/10 02:22:11;;;;;;;12.27;3.70;;;10.20;99.90;;;;;;5098149;28;20405;-71
2023/12/10 02:24:45;;;;;;;11.82;4.05;;;10.20;99.90;;;;;;5102721;28;20428;-72
2023/12/10 02:27:14;;;;;;;9.00;3.50;;;10.20;99.90;;;;;;5098753;28;21147;-72
2023/12/10 02:29:40;;;;;;;11.43;3.72;;;10.20;99.90;;;;;;5110411;28;20501;-72
2023/12/10 02:32:07;;;;;;;11.25;3.72;;;10.20;99.90;;;;;;5108487;28;20418;-72
2023/12/10 02:34:34;;;;;;;13.18;4.20;;;10.20;99.90;;;;;;5104614;28;20774;-72
2023/12/10 02:37:01;;;;;;;11.77;3.70;;;10.10;99.90;;;;;;5102750;28;20412;-72
2023/12/10 02:39:28;;;;;;;12.97;3.43;;;10.10;99.90;;;;;;5111284;28;20914;-72
2023/12/10 02:41:55;;;;;;;10.95;3.47;;;10.10;99.90;;;;;;5102503;28;20430;-72
2023/12/10 02:44:23;;;;;;;11.20;3.42;;;10.10;99.90;;;;;;5101774;28;20465;-72
2023/12/10 02:46:50;;;;;;;9.18;2.92;;;10.10;99.90;;;;;;5111578;28;20412;-71
2023/12/10 02:49:16;;;;;;;15.70;3.85;;;10.10;99.90;;;;;;5108142;28;20416;-72
2023/12/10 02:51:43;;;;;;;12.45;3.30;;;10.10;99.90;;;;;;5095201;28;20409;-72
2023/12/10 02:54:10;;;;;;;11.48;3.78;;;10.10;99.40;;;;;;5103287;28;20412;-71
2023/12/10 02:56:37;;;;;;;13.70;4.32;;;10.10;99.30;;;;;;5105579;28;20466;-71
2023/12/10 02:59:04;;;;;;;14.50;3.20;;;10.10;99.10;;;;;;5111826;28;20695;-72
2023/12/10 03:01:32;;;;;;;9.68;2.75;;;10.10;99.10;;;;;;5099036;28;20839;-72
2023/12/10 03:03:59;;;;;;;13.13;3.70;;;10.10;99.40;;;;;;5104407;27;20415;-72
2023/12/10 03:06:25;;;;;;;12.43;3.60;;;10.10;99.20;;;;;;5105798;28;20785;-72
2023/12/10 03:08:53;;;;;;;11.50;3.78;;;10.00;99.60;;;;;;5107586;28;20409;-72
2023/12/10 03:11:19;;;;;;;15.55;3.90;;;10.00;99.00;;;;;;5098822;28;20742;-72
2023/12/10 03:13:46;;;;;;;12.73;2.92;;;10.00;98.90;;;;;;5105789;28;20418;-72
2023/12/10 03:16:13;;;;;;;10.80;3.00;;;10.00;99.80;;;;;;5103781;28;20436;-71
2023/12/10 03:18:41;;;;;;;14.20;3.38;;;9.90;99.90;;;;;;5099609;28;20415;-72
2023/12/10 03:21:08;;;;;;;11.40;3.40;;;9.80;99.90;;;;;;5102911;28;20918;-71
2023/12/10 03:23:35;;;;;;;14.18;3.50;;;9.60;99.90;;;;;;5100910;28;20410;-72
2023/12/10 03:26:01;;;;;;;11.40;3.00;;;9.50;99.90;;;;;;5108143;28;20438;-71
2023/12/10 03:28:28;;;;;;;12.50;3.60;;;9.30;99.90;;;;;;5111073;28;21004;-71
2023/12/10 03:30:55;;;;;;;12.18;3.90;;;9.10;99.90;;;;;;5107869;28;20410;-72
2023/12/10 03:33:22;;;;;;;17.17;3.78;;;8.90;99.90;;;;;;5106752;27;20404;-72
2023/12/10 03:35:50;;;;;;;13.20;3.40;;;8.80;99.90;;;;;;5102439;28;20463;-71
2023/12/10 03:38:17;;;;;;;10.18;3.20;;;8.70;99.90;;;;;;5096640;28;20483;-71
2023/12/10 03:40:43;;;;;;;15.52;3.30;;;8.60;99.90;;;;;;5106106;28;20507;-71
2023/12/10 03:43:10;;;;;;;14.45;4.60;;;8.60;99.90;;;;;;5101420;28;20436;-73
2023/12/10 03:45:37;;;;;;;16.13;4.30;;;8.60;99.90;;;;;;5100565;28;20408;-72
2023/12/10 03:48:04;;;;;;;17.00;3.80;;;8.60;99.90;;;;;;5098665;28;20412;-71
2023/12/10 03:50:31;;;;;;;10.48;3.83;;;8.60;99.90;;;;;;5101040;28;20408;-71
2023/12/10 03:52:59;;;;;;;11.27;3.60;;;8.60;99.90;;;;;;5101130;28;20513;-72
2023/12/10 03:55:26;;;;;;;14.07;3.75;;;8.50;99.90;;;;;;5109515;28;20420;-71
2023/12/10 03:57:53;;;;;;;13.23;3.75;;;8.50;99.90;;;;;;5099642;28;20424;-72
2023/12/10 04:00:20;;;;;;;15.68;4.10;;;8.50;99.90;;;;;;5105397;28;20582;-72
2023/12/10 04:02:47;;;;;;;13.43;3.83;;;8.50;99.90;;;;;;5105917;28;20438;-71
2023/12/10 04:05:14;;;;;;;11.18;3.42;;;8.50;99.90;;;;;;5105807;28;20406;-71
2023/12/10 04:07:40;;;;;;;14.13;3.50;;;8.50;99.90;;;;;;5093585;28;20413;-71
2023/12/10 04:10:09;;;;;;;15.70;4.18;;;8.40;99.90;;;;;;5096423;28;20784;-71
2023/12/10 04:12:36;;;;;;;13.20;4.10;;;8.40;99.90;;;;;;5098818;28;20431;-71
2023/12/10 04:15:03;;;;;;;14.63;4.00;;;8.30;99.90;;;;;;5105369;28;20678;-71
2023/12/10 04:17:30;;;;;;;13.70;4.30;;;8.30;99.90;;;;;;5101696;28;20414;-71
2023/12/10 04:19:57;;;;;;;12.75;3.33;;;8.30;99.90;;;;;;5106571;27;20893;-71
2023/12/10 04:22:24;;;;;;;15.98;3.53;;;8.20;99.90;;;;;;5107264;28;20404;-71
2023/12/10 04:24:51;;;;;;;20.70;4.40;;;8.20;99.90;;;;;;5104559;28;20404;-71
2023/12/10 04:27:19;;;;;;;17.42;5.05;;;8.10;99.90;;;;;;5095269;28;20440;-71
2023/12/10 04:29:46;;;;;;;18.45;4.00;;;8.10;99.90;;;;;;5097221;28;20895;-72
2023/12/10 04:32:12;;;;;;;13.33;4.37;;;8.00;99.90;;;;;;5093962;28;20796;-71
2023/12/10 04:34:39;;;;;;;16.95;4.88;;;8.00;99.90;;;;;;5091534;28;20952;-71
2023/12/10 04:37:06;;;;;;;18.55;4.60;;;8.00;99.90;;;;;;5091882;28;20448;-71
2023/12/10 04:39:33;;;;;;;13.48;3.63;;;8.00;99.90;;;;;;5095596;28;20411;-70
2023/12/10 04:42:00;;;;;;;12.30;3.67;;;8.00;99.90;;;;;;5100700;28;20930;-71
2023/12/10 04:44:28;;;;;;;13.73;4.05;;;8.10;99.90;;;;;;5108349;28;20438;-71
2023/12/10 04:46:55;;;;;;;16.75;4.07;;;8.10;99.90;;;;;;5089727;28;20420;-71
2023/12/10 04:49:21;;;;;;;12.53;3.70;;;8.20;99.90;;;;;;5103104;28;20579;-71
2023/12/10 04:51:48;;;;;;;12.90;4.30;;;8.30;99.90;;;;;;5091663;28;20413;-71
2023/12/10 04:54:15;;;;;;;14.05;4.10;;;8.30;99.90;;;;;;5102231;28;20424;-71
2023/12/10 04:56:42;;;;;;;14.00;4.05;;;8.40;99.90;;;;;;5098119;28;20426;-71
2023/12/10 04:59:09;;;;;;;13.20;4.30;;;8.50;99.90;;;;;;5101871;28;20411;-73
2023/12/10 05:01:37;;;;;;;14.40;3.50;;;8.70;99.90;;;;;;5108363;28;20779;-71
2023/12/10 05:04:04;;;;;;;14.60;3.60;;;8.80;99.90;;;;;;5108973;28;20411;-71
2023/12/10 05:06:32;;;;;;;16.90;4.30;;;9.00;99.90;;;;;;5097797;28;20796;-73
2023/12/10 05:08:59;;;;;;;9.63;2.85;;;9.00;99.90;;;;;;5091908;28;20446;-71
2023/12/10 05:11:26;;;;;;;12.45;3.50;;;9.20;99.90;;;;;;5102359;28;20432;-71
2023/12/10 05:13:53;;;;;;;10.45;4.10;;;9.30;99.90;;;;;;5108212;28;20428;-72
2023/12/10 05:16:20;;;;;;;13.75;3.70;;;9.40;99.90;;;;;;5106901;28;20413;-72
2023/12/10 05:18:48;;;;;;;9.93;3.20;;;9.40;99.90;;;;;;5097253;28;20863;-71
2023/12/10 05:21:15;;;;;;;12.73;3.80;;;9.50;99.90;;;;;;5089895;28;20422;-71
2023/12/10 05:23:42;;;;;;;14.80;3.75;;;9.50;99.90;;;;;;5106148;28;20417;-72
2023/12/10 05:26:08;;;;;;;13.65;3.72;;;9.50;99.90;;;;;;5095842;28;20505;-71
2023/12/10 05:28:35;;;;;;;14.82;3.20;;;9.60;99.90;;;;;;5108506;28;20416;-71
2023/12/10 05:31:02;;;;;;;14.55;3.60;;;9.60;99.90;;;;;;5105719;28;20414;-71
2023/12/10 05:33:29;;;;;;;15.93;3.88;;;9.60;99.90;;;;;;5096392;28;20414;-71
2023/12/10 05:35:57;;;;;;;14.25;3.78;;;9.60;99.90;;;;;;5095772;28;20423;-72
2023/12/10 05:38:24;;;;;;;12.50;3.80;;;9.60;99.90;;;;;;5108732;28;20878;-71
2023/12/10 05:40:51;;;;;;;11.07;3.22;;;9.60;99.90;;;;;;5102040;28;20424;-71
2023/12/10 05:43:18;;;;;;;14.90;4.15;;;9.60;99.90;;;;;;5099349;28;20416;-71
2023/12/10 05:45:44;;;;;;;15.35;3.78;;;9.70;99.90;;;;;;5094246;28;20476;-71
2023/12/10 05:48:11;;;;;;;8.68;3.00;;;9.70;99.90;;;;;;5099433;28;20786;-72
2023/12/10 05:50:38;;;;;;;12.95;3.83;;;9.70;99.90;;;;;;5107252;28;20414;-71
2023/12/10 05:53:06;;;;;;;10.73;3.20;;;9.70;99.90;;;;;;5101511;28;20790;-71
2023/12/10 05:55:33;;;;;;;11.05;3.38;;;9.70;99.90;;;;;;5103848;28;20432;-71
2023/12/10 05:58:00;;;;;;;13.48;4.00;;;9.70;99.90;;;;;;5097307;28;20426;-71
2023/12/10 06:00:26;;;;;;;13.43;3.30;;;9.70;99.90;;;;;;5095841;28;20434;-72
2023/12/10 06:02:53;;;;;;;9.75;3.05;;;9.80;99.90;;;;;;5101753;28;20497;-71
2023/12/10 06:05:20;;;;;;;13.23;3.40;;;9.80;99.90;;;;;;5096574;28;20412;-71
2023/12/10 06:07:47;;;;;;;11.70;3.45;;;9.80;99.90;;;;;;5089205;28;20413;-71
2023/12/10 06:10:15;;;;;;;14.10;3.88;;;9.80;99.90;;;;;;5095954;28;20438;-71
2023/12/10 06:12:42;;;;;;;10.73;3.00;;;9.80;99.90;;;;;;5090776;28;20910;-71
2023/12/10 06:15:10;;;;;;;11.85;3.90;;;9.80;99.90;;;;;;5090109;28;20425;-71
2023/12/10 06:17:37;;;;;;;14.05;5.18;;;9.70;99.90;;;;;;5091883;28;20461;-71
2023/12/10 06:20:05;;;;;;;10.50;3.42;;;9.70;99.90;;;;;;5097164;28;20501;-71
2023/12/10 06:22:31;;;;;;;12.30;3.72;;;9.70;99.90;;;;;;5093715;28;20885;-71
2023/12/10 06:24:58;;;;;;;13.63;4.15;;;9.70;99.90;;;;;;5097425;28;20438;-71
2023/12/10 06:27:26;;;;;;;11.87;3.00;;;9.70;99.90;;;;;;5108259;28;20412;-71
2023/12/10 06:29:54;;;;;;;13.55;3.50;;;9.70;99.90;;;;;;5101708;28;20418;-71
2023/12/10 06:32:21;;;;;;;13.38;3.75;;;9.70;99.90;;;;;;5103731;28;20491;-71
2023/12/10 06:34:48;;;;;;;15.02;3.53;;;9.80;99.90;;;;;;5095025;28;20432;-71
2023/12/10 06:37:15;;;;;;;10.77;3.70;;;9.80;99.90;;;;;;5107849;28;20928;-71
2023/12/10 06:39:41;;;;;;;13.40;3.50;;;9.80;99.90;;;;;;5104498;28;20532;-71
2023/12/10 06:42:08;;;;;;;14.30;4.70;;;9.80;99.90;;;;;;5107907;28;20424;-72
2023/12/10 06:44:36;;;;;;;16.60;4.78;;;9.80;99.90;;;;;;5105806;28;20503;-71
2023/12/10 06:47:03;;;;;;;12.35;3.28;;;9.80;99.90;;;;;;5107658;28;20435;-71
2023/12/10 06:49:30;;;;;;;15.65;3.95;;;9.90;99.90;;;;;;5097179;28;20495;-71
2023/12/10 06:51:57;;;;;;;10.38;3.30;;;9.90;99.90;;;;;;5098775;28;20413;-71
2023/12/10 06:54:24;;;;;;;9.60;3.10;;;9.90;99.90;;;;;;5098650;28;20430;-71
2023/12/10 06:56:50;;;;;;;13.50;3.10;;;9.90;99.90;;;;;;5105884;28;20418;-71
2023/12/10 06:59:17;;;;;;;15.10;3.83;;;9.90;99.90;;;;;;5095650;28;20414;-71
2023/12/10 07:01:45;;;;;;;11.48;3.60;;;9.80;99.90;;;;;;5100529;28;20420;-71
2023/12/10 07:04:12;;;;;;;12.63;3.40;;;9.80;99.90;;;;;;5100516;28;20412;-71
2023/12/10 07:06:39;;;;;;;11.33;3.50;;;9.90;99.90;;;;;;5100721;28;20427;-71
2023/12/10 07:09:07;;;;;;;15.52;3.63;;;9.90;99.90;;;;;;5101236;28;20429;-70
2023/12/10 07:11:33;;;;;;;12.40;3.60;;;9.90;99.90;;;;;;5106044;28;20404;-71
2023/12/10 07:14:00;;;;;;;13.93;3.97;;;9.90;99.90;;;;;;5102991;28;20497;-71
2023/12/10 07:16:27;;;;;;;9.32;2.90;;;9.90;99.90;;;;;;5105882;28;20909;-71
2023/12/10 07:18:56;;;;;;;13.55;3.38;;;9.90;99.90;;;;;;5103180;28;20780;-72
2023/12/10 07:21:22;;;;;;;10.27;3.20;;;9.90;99.90;;;;;;5096364;28;20424;-71
2023/12/10 07:23:49;;;;;;;10.93;3.30;;;9.90;99.90;;;;;;5083455;22;20441;-72
2023/12/10 07:26:22;;;;;;;15.75;5.20;;;9.90;99.90;;;;;;5044157;28;20519;-72
2023/12/10 07:28:48;;;;;;;8.27;2.90;;;9.90;99.90;;;;;;5038517;28;20419;-73
2023/12/10 07:31:15;;;;;;;11.00;3.58;;;9.90;99.90;;;;;;5046890;28;20427;-72
2023/12/10 07:33:42;;;;;;;13.63;3.22;;;9.90;99.90;;;;;;5046554;28;20500;-73
2023/12/10 07:36:12;;;;;;;12.25;4.00;;;9.90;99.90;;;;;;5047072;28;20420;-73
2023/12/10 07:38:39;;;;;;;11.45;2.72;;;9.90;99.90;;;;;;5043810;28;20470;-72
2023/12/10 07:41:06;;;;;;;12.65;4.20;;;9.90;99.90;;;;;;5044944;28;20540;-73
2023/12/10 07:43:33;;;;;;;11.10;3.72;;;9.90;99.90;;;;;;5046969;28;20410;-73
2023/12/10 07:46:00;;;;;;;11.77;3.20;;;9.90;99.90;;;;;;5038675;28;20413;-73
2023/12/10 07:48:28;;;;;;;11.05;3.50;;;9.90;99.90;;;;;;5046978;28;20421;-73
2023/12/10 07:50:54;;;;;;;9.50;3.00;;;9.90;99.90;;;;;;5040091;28;20506;-72
2023/12/10 07:53:23;;;;;;;11.45;3.25;;;9.90;99.90;;;;;;5039606;28;20437;-73
2023/12/10 07:55:50;;;;;;;13.00;4.45;;;9.80;99.90;;;;;;5046674;28;20409;-72
2023/12/10 07:58:17;;;;;;;11.90;3.92;;;9.90;99.90;;;;;;5045440;28;20448;-72
2023/12/10 08:00:47;;;;;;;17.33;3.60;;;9.80;99.90;;;;;;5045749;28;20424;-73
2023/12/10 08:03:13;;;;;;;11.82;3.20;;;9.80;99.90;;;;;;5039951;28;20419;-73
2023/12/10 08:05:40;;;;;;;11.48;3.25;;;9.80;99.90;;;;;;5039435;28;20418;-73
2023/12/10 08:08:07;;;;;;;11.98;3.10;;;9.80;99.90;;;;;;5040084;28;20435;-72
2023/12/10 08:10:36;;;;;;;12.05;3.20;;;9.80;99.90;;;;;;5039874;28;20418;-71
2023/12/10 08:13:02;;;;;;;13.93;3.78;;;9.80;99.90;;;;;;5034264;28;20749;-71
2023/12/10 08:15:29;;;;;;;15.07;3.50;;;9.80;99.90;;;;;;5036116;28;20459;-72
2023/12/10 08:17:56;;;;;;;8.85;3.17;;;9.80;99.90;;;;;;5046498;28;20413;-72
2023/12/10 08:20:23;;;;;;;12.15;3.20;;;9.80;99.90;;;;;;5039962;28;20549;-72
2023/12/10 08:22:50;;;;;;;10.90;3.10;;;9.80;99.90;;;;;;5035115;28;20427;-71
2023/12/10 08:25:17;;;;;;;10.80;3.35;;;9.80;99.90;;;;;;5038893;28;20428;-71
2023/12/10 08:27:45;;;;;;;9.15;3.30;;;9.80;99.90;;;;;;5036026;28;20418;-70
2023/12/10 08:30:12;;;;;;;11.77;3.10;;;9.80;99.90;;;;;;5044924;28;20483;-70
2023/12/10 08:32:40;;;;;;;13.00;3.22;;;9.80;99.90;;;;;;5040801;28;20429;-71
2023/12/10 08:35:07;;;;;;;14.85;3.72;;;9.80;99.90;;;;;;5033203;28;20446;-70
2023/12/10 08:37:34;;;;;;;10.15;3.45;;;9.80;99.90;;;;;;5036910;28;20437;-70
2023/12/10 08:40:02;;;;;;;12.07;2.80;;;9.80;99.90;;;;;;5047734;28;20521;-71
2023/12/10 08:42:30;;;;;;;11.18;2.90;;;9.80;99.90;;;;;;5055170;28;20436;-71
2023/12/10 08:44:58;;;;;;;12.77;3.30;;;9.80;99.90;;;;;;5038327;28;20417;-71
2023/12/10 08:47:25;;;;;;;13.53;3.10;;;9.80;99.90;;;;;;5038777;28;20484;-70
2023/12/10 08:49:52;;;;;;;10.85;3.47;;;9.80;99.90;;;;;;5043700;28;20409;-70
2023/12/10 08:52:19;;;;;;;12.32;3.85;;;9.90;99.90;;;;;;5041767;28;20439;-71
2023/12/10 08:54:46;;;;;;;10.27;3.30;;;9.80;99.90;;;;;;5040464;28;20492;-70
2023/12/10 08:57:14;;;;;;;11.05;3.80;;;9.80;99.90;;;;;;5039437;28;20450;-70
2023/12/10 08:59:41;;;;;;;10.90;3.58;;;9.90;99.90;;;;;;5035154;28;20409;-70
2023/12/10 09:02:09;;;;;;;18.85;4.40;;;9.90;99.90;;;;;;5045553;28;20438;-70
2023/12/10 09:04:36;;;;;;;10.35;3.20;;;9.90;99.90;;;;;;5043821;28;20501;-70
2023/12/10 09:07:03;;;;;;;10.18;2.60;;;9.90;99.90;;;;;;5039283;28;20435;-70
2023/12/10 09:09:32;;;;;;;10.88;3.05;;;9.90;99.90;;;;;;5044593;28;20493;-71
2023/12/10 09:11:59;;;;;;;12.85;3.00;;;9.90;99.90;;;;;;5031792;28;20924;-70
2023/12/10 09:14:26;;;;;;;16.00;3.53;;;9.90;99.90;;;;;;5029441;28;20514;-70
2023/12/10 09:16:53;;;;;;;9.88;3.25;;;10.00;99.90;;;;;;5042122;28;20476;-71
2023/12/10 09:19:22;;;;;;;10.57;3.10;;;10.00;99.90;;;;;;5039268;28;20424;-70
2023/12/10 09:21:50;;;;;;;12.60;3.03;;;10.00;99.90;;;;;;5041949;28;20931;-71
2023/12/10 09:24:16;;;;;;;9.48;3.10;;;10.00;99.90;;;;;;5040613;28;21170;-72
2023/12/10 09:26:44;;;;;;;11.85;4.00;;;10.10;99.90;;;;;;5035527;28;20437;-71
2023/12/10 09:29:11;;;;;;;9.85;3.80;;;10.10;99.90;;;;;;5042923;28;20468;-72
2023/12/10 09:31:38;;;;;;;13.30;3.30;;;10.10;99.90;;;;;;5038453;28;20768;-72
2023/12/10 09:34:05;;;;;;;12.20;3.60;;;10.10;99.90;;;;;;5040820;28;20411;-73
2023/12/10 09:36:33;;;;;;;10.65;3.60;;;10.10;99.90;;;;;;5031182;28;20435;-72
2023/12/10 09:38:59;;;;;;;12.65;3.70;;;10.20;99.90;;;;;;5036824;28;20436;-72
2023/12/10 09:41:26;;;;;;;13.40;4.00;;;10.20;99.90;;;;;;5038472;28;20437;-72
2023/12/10 09:43:53;;;;;;;14.13;3.72;;;10.20;99.90;;;;;;5036596;28;20750;-72
2023/12/10 09:46:20;;;;;;;11.60;3.38;;;10.30;99.90;;;;;;5034162;28;20425;-72
2023/12/10 09:48:48;;;;;;;9.82;3.38;;;10.30;99.90;;;;;;5034422;28;20441;-72
2023/12/10 09:51:15;;;;;;;11.23;3.60;;;10.30;99.90;;;;;;5038556;28;20437;-74
2023/12/10 09:53:43;;;;;;;9.60;3.13;;;10.30;99.90;;;;;;5037126;28;21585;-72
2023/12/10 09:56:11;;;;;;;12.20;3.20;;;10.30;99.90;;;;;;5039214;28;20411;-72
2023/12/10 09:58:37;;;;;;;13.40;3.55;;;10.40;99.90;;;;;;5045280;28;20914;-73
2023/12/10 10:01:07;;;;;;;12.63;3.47;;;10.40;99.90;;;;;;5037789;28;20434;-71
2023/12/10 10:03:36;;;;;;;12.18;3.50;;;10.50;99.90;;;;;;5025912;28;20431;-70
2023/12/10 10:06:03;;;;;;;12.68;4.10;;;10.50;99.90;;;;;;5038105;28;20450;-71
2023/12/10 10:08:30;;;;;;;10.75;3.30;;;10.60;99.90;;;;;;5031343;28;20422;-71
2023/12/10 10:10:58;;;;;;;13.38;3.13;;;10.60;99.90;;;;;;5043790;28;20417;-72
2023/12/10 10:13:25;;;;;;;10.45;3.28;;;10.70;99.90;;;;;;5044577;28;20416;-73
2023/12/10 10:15:53;;;;;;;12.32;3.50;;;10.80;99.90;;;;;;5030387;28;20875;-71
2023/12/10 10:18:21;;;;;;;13.40;3.17;;;10.80;99.90;;;;;;5031103;28;20421;-71
2023/12/10 10:20:48;;;;;;;12.43;3.30;;;10.80;99.90;;;;;;5036992;28;20433;-71
2023/12/10 10:23:15;;;;;;;12.18;4.28;;;10.80;99.90;;;;;;5027571;28;20937;-70
2023/12/10 10:25:42;;;;;;;11.25;3.80;;;10.80;99.60;;;;;;5039664;28;20414;-71
2023/12/10 10:28:10;;;;;;;10.50;3.43;;;10.90;99.50;;;;;;5038687;28;20457;-72
2023/12/10 10:30:37;;;;;;;12.93;3.53;;;11.00;99.90;;;;;;5037145;28;20445;-71
2023/12/10 10:33:04;;;;;;;10.35;3.80;;;11.20;99.20;;;;;;5028514;28;20903;-70
2023/12/10 10:35:31;;;;;;;9.35;3.20;;;11.30;99.10;;;;;;5040629;28;20918;-71
2023/12/10 10:37:59;;;;;;;8.85;3.35;;;11.30;99.10;;;;;;5029366;28;20424;-71
2023/12/10 10:40:26;;;;;;;13.70;3.38;;;11.30;99.00;;;;;;5045923;28;20776;-71
2023/12/10 10:42:53;;;;;;;10.95;4.30;;;11.30;99.20;;;;;;5047605;28;20433;-72
2023/12/10 10:45:21;;;;;;;10.82;3.30;;;11.30;98.90;;;;;;5047199;28;20897;-71
2023/12/10 10:47:48;;;;;;;11.77;3.70;;;11.40;99.00;;;;;;5043736;28;20794;-70
2023/12/10 10:50:16;;;;;;;10.60;3.58;;;11.40;98.20;;;;;;5042842;28;20471;-71
2023/12/10 10:52:44;;;;;;;11.75;3.60;;;11.50;97.80;;;;;;5037814;28;20423;-70
2023/12/10 10:55:12;;;;;;;8.32;3.20;;;11.50;97.90;;;;;;5037884;28;20468;-69
2023/12/10 10:57:39;;;;;;;11.43;2.85;;;11.40;98.20;;;;;;5040555;28;20413;-69
2023/12/10 11:00:35;;;;;;;12.55;3.40;;;11.40;98.40;;;;;;5048791;28;20543;-70
2023/12/10 11:03:04;;;;;;;9.17;3.20;;;11.30;99.20;;;;;;5043249;28;20475;-69
2023/12/10 11:05:32;;;;;;;12.32;3.50;;;11.20;99.70;;;;;;5031624;28;20419;-70
2023/12/10 11:07:59;;;;;;;12.75;3.30;;;11.10;99.70;;;;;;5035844;28;20427;-70
2023/12/10 11:10:26;;;;;;;13.60;4.70;;;11.20;99.90;;;;;;5038343;28;20443;-73
2023/12/10 11:12:54;;;;;;;11.68;3.78;;;11.30;99.90;;;;;;5048441;28;20409;-70
2023/12/10 11:15:24;;;;;;;13.02;4.03;;;11.40;99.60;;;;;;5044643;28;20861;-71
2023/12/10 11:17:53;;;;;;;11.68;3.92;;;11.50;98.70;;;;;;5045314;28;20443;-72
2023/12/10 11:20:34;;;;;;;10.85;3.55;;;11.50;98.30;;;;;;5039077;28;20436;-70
2023/12/10 11:23:03;;;;;;;11.80;3.50;;;11.50;98.60;;;;;;5029497;28;20506;-72
2023/12/10 11:25:30;;;;;;;10.52;3.97;;;11.50;97.90;;;;;;5037553;28;20414;-72
2023/12/10 11:27:57;;;;;;;11.18;2.90;;;11.50;97.90;;;;;;5042635;28;20431;-72
2023/12/10 11:30:24;;;;;;;10.50;3.10;;;11.50;98.10;;;;;;5047650;28;20500;-72
2023/12/10 11:32:52;;;;;;;9.38;3.40;;;11.60;97.90;;;;;;5051720;28;20496;-71
2023/12/10 11:35:19;;;;;;;11.45;3.60;;;11.70;98.10;;;;;;5040829;28;20530;-72
2023/12/10 11:37:46;;;;;;;9.60;3.70;;;11.80;97.30;;;;;;5032704;28;20500;-73
2023/12/10 11:40:13;;;;;;;13.18;3.90;;;11.90;96.70;;;;;;5042701;28;20522;-72
2023/12/10 11:42:40;;;;;;;11.63;4.07;;;11.90;96.60;;;;;;5043155;28;20784;-71
2023/12/10 11:45:08;;;;;;;13.68;3.67;;;11.80;97.00;;;;;;5034846;28;20439;-72
2023/12/10 11:47:35;;;;;;;9.77;3.40;;;11.80;97.50;;;;;;5035579;28;20995;-72
2023/12/10 11:50:06;;;;;;;12.07;3.80;;;11.80;97.00;;;;;;5037751;28;20429;-72
2023/12/10 11:52:32;;;;;;;13.13;4.15;;;11.80;97.10;;;;;;5043028;28;20419;-71
2023/12/10 11:55:00;;;;;;;7.80;3.15;;;11.80;97.30;;;;;;5029259;28;20413;-71
2023/12/10 11:57:27;;;;;;;10.15;3.85;;;11.80;97.20;;;;;;5036212;28;20448;-72
2023/12/10 11:59:54;;;;;;;10.98;3.67;;;11.80;97.50;;;;;;5042838;28;20510;-72
2023/12/10 12:02:22;;;;;;;10.70;3.85;;;11.80;97.50;;;;;;5035989;28;20438;-71
2023/12/10 12:04:51;;;;;;;11.88;3.45;;;11.70;97.30;;;;;;5036178;28;20432;-69
2023/12/10 12:07:26;;;;;;;11.85;3.90;;;11.80;97.70;;;;;;5033038;28;20506;-74
2023/12/10 12:09:54;;;;;;;14.15;3.90;;;11.80;97.80;;;;;;5035496;28;20437;-71
2023/12/10 12:12:22;;;;;;;11.93;3.55;;;11.80;97.10;;;;;;5041372;28;20437;-71
2023/12/10 12:14:49;;;;;;;11.48;3.30;;;11.80;97.30;;;;;;5033922;28;20480;-71
2023/12/10 12:17:16;;;;;;;11.40;3.40;;;11.80;97.70;;;;;;5039399;28;20421;-71
2023/12/10 12:19:43;;;;;;;15.25;4.50;;;11.70;98.00;;;;;;5043521;28;20795;-70
2023/12/10 12:22:10;;;;;;;10.15;4.20;;;11.70;97.90;;;;;;5034235;28;20859;-71
2023/12/10 12:24:39;;;;;;;13.07;3.60;;;11.70;98.30;;;;;;5044709;28;20417;-72
2023/12/10 12:27:07;;;;;;;16.50;4.18;;;11.70;98.50;;;;;;5036494;28;20815;-72
2023/12/10 12:29:34;;;;;;;16.33;4.22;;;11.60;98.20;;;;;;5029210;28;20466;-72
2023/12/10 12:32:01;;;;;;;11.77;4.35;;;11.60;98.30;;;;;;5038702;28;20434;-74
2023/12/10 12:34:28;;;;;;;12.55;3.70;;;11.60;98.50;;;;;;5037116;28;20419;-73
2023/12/10 12:36:55;;;;;;;12.60;3.90;;;11.60;98.60;;;;;;5037115;28;20492;-75
2023/12/10 12:39:23;;;;;;;14.75;4.30;;;11.60;98.50;;;;;;5026823;28;20422;-72
2023/12/10 12:41:51;;;;;;;11.70;3.90;;;11.60;98.90;;;;;;5038674;28;20448;-72
2023/12/10 12:44:18;;;;;;;13.03;4.10;;;11.50;98.90;;;;;;5037042;28;20425;-73